Time;durP1;ratioP1;P1;durP2;ratioP2;P2;SDS_P1;SDS_P2;PMS_P1;PMS_P2;Temp;Humidity;BMP_temperature;BMP_pressure;BME280_temperature;BME280_humidity;BME280_pressure;Samples;Min_cycle;Max_cycle;Signal;HPM_P1;HPM_P2
2023/09/27 00:00:33;;;;;;;19.48;15.82;;;15.40;99.90;;;;;;5041982;28;20051;-79
2023/09/27 00:02:59;;;;;;;19.45;14.90;;;15.40;99.90;;;;;;5049381;28;20121;-78
2023/09/27 00:05:25;;;;;;;19.65;15.98;;;15.40;99.90;;;;;;5039033;28;20053;-79
2023/09/27 00:07:53;;;;;;;15.20;13.57;;;15.40;99.90;;;;;;5038014;28;20174;-79
2023/09/27 00:10:19;;;;;;;18.92;15.57;;;15.40;99.90;;;;;;5049657;28;20523;-78
2023/09/27 00:12:48;;;;;;;24.48;18.98;;;15.30;99.90;;;;;;5049666;28;20044;-79
2023/09/27 00:15:14;;;;;;;22.88;17.88;;;15.40;99.90;;;;;;5049420;28;20041;-78
2023/09/27 00:17:42;;;;;;;21.02;18.20;;;15.30;99.90;;;;;;5050321;28;20111;-78
2023/09/27 00:20:12;;;;;;;22.52;17.50;;;15.30;99.90;;;;;;5043037;28;20052;-78
2023/09/27 00:22:37;;;;;;;19.17;17.15;;;15.30;99.90;;;;;;5052961;28;20052;-78
2023/09/27 00:25:04;;;;;;;17.75;14.90;;;15.20;99.90;;;;;;5046235;28;20484;-78
2023/09/27 00:27:31;;;;;;;21.13;15.82;;;15.20;99.90;;;;;;5047664;28;20049;-78
2023/09/27 00:29:57;;;;;;;16.92;13.43;;;15.20;99.90;;;;;;5021797;28;20162;-83
2023/09/27 00:32:23;;;;;;;23.27;18.13;;;15.20;99.90;;;;;;5053422;28;20142;-82
2023/09/27 00:34:49;;;;;;;19.00;15.55;;;15.20;99.90;;;;;;5050712;28;20049;-81
2023/09/27 00:37:15;;;;;;;25.20;19.73;;;15.20;99.90;;;;;;5042702;28;20433;-82
2023/09/27 00:39:41;;;;;;;22.23;18.42;;;15.20;99.90;;;;;;5054057;28;20087;-83
2023/09/27 00:42:07;;;;;;;21.55;17.75;;;15.20;99.90;;;;;;5054254;28;20107;-83
2023/09/27 00:44:33;;;;;;;22.80;19.95;;;15.20;99.90;;;;;;5036098;28;20135;-84
2023/09/27 00:46:59;;;;;;;23.88;17.90;;;15.20;99.90;;;;;;5029999;28;20041;-84
2023/09/27 00:49:25;;;;;;;23.38;19.13;;;15.10;99.90;;;;;;5053508;28;20037;-84
2023/09/27 00:51:52;;;;;;;25.52;18.70;;;15.10;99.90;;;;;;5045961;28;20044;-84
2023/09/27 00:54:19;;;;;;;22.63;18.13;;;15.10;99.90;;;;;;5052394;28;20040;-84
2023/09/27 00:56:47;;;;;;;24.17;19.42;;;15.10;99.90;;;;;;5046746;28;20063;-84
2023/09/27 00:59:14;;;;;;;27.77;21.90;;;15.10;99.90;;;;;;5026847;28;20081;-84
2023/09/27 01:01:41;;;;;;;27.15;22.40;;;15.10;99.90;;;;;;5048965;28;20043;-83
2023/09/27 01:04:08;;;;;;;25.33;19.20;;;15.10;99.90;;;;;;5054370;28;20049;-83
2023/09/27 01:06:34;;;;;;;21.25;17.95;;;15.10;99.90;;;;;;5053641;28;20063;-81
2023/09/27 01:09:00;;;;;;;28.42;23.30;;;15.00;99.90;;;;;;5053538;28;20409;-83
2023/09/27 01:11:27;;;;;;;25.65;20.95;;;15.00;99.90;;;;;;5053907;28;20099;-84
2023/09/27 01:13:53;;;;;;;16.85;14.60;;;15.00;99.90;;;;;;5051023;28;20052;-82
2023/09/27 01:16:19;;;;;;;26.25;21.05;;;15.00;99.90;;;;;;5048927;28;20043;-83
2023/09/27 01:18:44;;;;;;;24.30;18.20;;;15.00;99.90;;;;;;5032624;28;20128;-83
2023/09/27 01:21:10;;;;;;;21.95;16.48;;;15.00;99.90;;;;;;5036513;28;20547;-82
2023/09/27 01:23:40;;;;;;;25.52;20.75;;;15.00;99.90;;;;;;5053541;28;20049;-83
2023/09/27 01:26:08;;;;;;;21.02;14.80;;;15.00;99.90;;;;;;5053525;28;20547;-84
2023/09/27 01:28:36;;;;;;;16.63;14.05;;;15.00;99.90;;;;;;5053404;28;20049;-81
2023/09/27 01:31:02;;;;;;;20.08;17.40;;;14.90;99.90;;;;;;5029126;28;20116;-83
2023/09/27 01:33:29;;;;;;;27.98;23.00;;;14.90;99.90;;;;;;5046147;28;20500;-83
2023/09/27 01:35:56;;;;;;;30.25;25.65;;;14.90;99.90;;;;;;5047253;28;20053;-83
2023/09/27 01:38:22;;;;;;;31.15;24.75;;;14.90;99.90;;;;;;5053464;28;20040;-83
2023/09/27 01:40:47;;;;;;;27.90;23.35;;;14.90;99.90;;;;;;5036834;28;20401;-83
2023/09/27 01:43:13;;;;;;;27.70;22.02;;;14.80;99.90;;;;;;5052974;28;20040;-83
2023/09/27 01:45:39;;;;;;;19.25;15.32;;;14.80;99.90;;;;;;5040236;28;20390;-83
2023/09/27 01:48:05;;;;;;;23.42;19.88;;;14.80;99.90;;;;;;5052858;28;20049;-83
2023/09/27 01:50:33;;;;;;;23.60;19.85;;;14.80;99.90;;;;;;5052739;28;20508;-83
2023/09/27 01:52:59;;;;;;;26.73;22.45;;;14.80;99.90;;;;;;5049706;28;20045;-83
2023/09/27 01:55:26;;;;;;;28.05;22.80;;;14.80;99.90;;;;;;5030955;28;20047;-83
2023/09/27 01:57:55;;;;;;;29.65;25.35;;;14.80;99.90;;;;;;5059514;28;20094;-84
2023/09/27 02:00:21;;;;;;;27.80;21.95;;;14.80;99.90;;;;;;5047356;28;20081;-83
2023/09/27 02:02:55;;;;;;;28.73;22.65;;;14.70;99.90;;;;;;5050449;28;20100;-84
2023/09/27 02:05:21;;;;;;;23.80;19.65;;;14.70;99.90;;;;;;5030059;28;20040;-84
2023/09/27 02:07:48;;;;;;;26.50;20.98;;;14.70;99.90;;;;;;5044344;28;20127;-82
2023/09/27 02:10:14;;;;;;;30.48;25.10;;;14.70;99.90;;;;;;5050426;28;20095;-83
2023/09/27 02:12:40;;;;;;;32.40;24.35;;;14.70;99.90;;;;;;5051356;28;20049;-82
2023/09/27 02:15:09;;;;;;;28.40;21.52;;;14.70;99.90;;;;;;5051488;28;20059;-83
2023/09/27 02:17:36;;;;;;;28.58;24.85;;;14.70;99.90;;;;;;5018559;28;20049;-83
2023/09/27 02:20:14;;;;;;;30.90;25.13;;;14.60;99.90;;;;;;5044154;28;20067;-83
2023/09/27 02:22:40;;;;;;;26.88;23.58;;;14.60;99.90;;;;;;5035702;28;20049;-83
2023/09/27 02:25:09;;;;;;;29.65;24.60;;;14.60;99.90;;;;;;5042714;28;20076;-83
2023/09/27 02:27:36;;;;;;;30.77;26.85;;;14.60;99.90;;;;;;5051766;28;20151;-83
2023/09/27 02:30:03;;;;;;;30.77;25.58;;;14.60;99.90;;;;;;5042805;28;20098;-83
2023/09/27 02:32:29;;;;;;;31.90;26.05;;;14.60;99.90;;;;;;5045309;28;20543;-84
2023/09/27 02:34:55;;;;;;;32.33;25.90;;;14.60;99.90;;;;;;5051829;28;20057;-83
2023/09/27 02:37:21;;;;;;;34.47;26.70;;;14.50;99.90;;;;;;5035935;28;20041;-83
2023/09/27 02:39:47;;;;;;;30.75;24.65;;;14.50;99.90;;;;;;5051917;28;20053;-84
2023/09/27 02:42:13;;;;;;;33.50;27.27;;;14.50;99.90;;;;;;5049692;28;20532;-83
2023/09/27 02:44:39;;;;;;;30.48;24.70;;;14.50;99.90;;;;;;5064772;28;20095;-83
2023/09/27 02:47:07;;;;;;;31.52;26.52;;;14.50;99.90;;;;;;5042386;28;20048;-83
2023/09/27 02:49:37;;;;;;;30.92;24.95;;;14.40;99.90;;;;;;5041800;28;20052;-83
2023/09/27 02:52:06;;;;;;;31.17;25.27;;;14.40;99.90;;;;;;5081973;28;20091;-83
2023/09/27 02:54:33;;;;;;;31.88;23.67;;;14.40;99.90;;;;;;5046922;28;20116;-83
2023/09/27 02:57:01;;;;;;;31.90;26.38;;;14.40;99.90;;;;;;5041878;28;20057;-83
2023/09/27 02:59:31;;;;;;;21.75;17.23;;;14.40;99.90;;;;;;5039090;28;20493;-83
2023/09/27 03:01:56;;;;;;;28.83;21.48;;;14.40;99.90;;;;;;5047913;28;20052;-83
2023/09/27 03:04:22;;;;;;;30.67;26.55;;;14.40;99.90;;;;;;5051429;28;20455;-83
2023/09/27 03:06:49;;;;;;;26.23;21.65;;;14.40;99.90;;;;;;5035250;28;20405;-82
2023/09/27 03:09:15;;;;;;;22.85;18.77;;;14.40;99.90;;;;;;5049680;28;20049;-84
2023/09/27 03:11:42;;;;;;;28.83;23.10;;;14.40;99.90;;;;;;5048351;28;20053;-83
2023/09/27 03:14:08;;;;;;;25.17;22.33;;;14.40;99.90;;;;;;5065229;28;20041;-83
2023/09/27 03:16:34;;;;;;;27.83;23.05;;;14.40;99.90;;;;;;5064984;28;20124;-81
2023/09/27 03:19:02;;;;;;;31.13;26.63;;;14.40;99.90;;;;;;5064938;28;20037;-83
2023/09/27 03:21:30;;;;;;;30.15;24.70;;;14.40;99.90;;;;;;5043298;28;20083;-83
2023/09/27 03:23:56;;;;;;;28.88;24.40;;;14.40;99.90;;;;;;5051113;28;20053;-84
2023/09/27 03:26:23;;;;;;;37.17;27.17;;;14.40;99.90;;;;;;5050734;28;20252;-83
2023/09/27 03:28:50;;;;;;;33.10;25.52;;;14.40;99.90;;;;;;5042674;28;20049;-83
2023/09/27 03:31:16;;;;;;;34.30;26.30;;;14.30;99.90;;;;;;5050831;28;20098;-84
2023/09/27 03:33:42;;;;;;;34.35;28.02;;;14.30;99.90;;;;;;5051013;28;20120;-83
2023/09/27 03:36:07;;;;;;;24.60;19.15;;;14.30;99.90;;;;;;5051387;28;20501;-80
2023/09/27 03:38:33;;;;;;;35.35;28.52;;;14.30;99.90;;;;;;5026613;28;20049;-83
2023/09/27 03:40:59;;;;;;;33.15;27.92;;;14.30;99.90;;;;;;5042781;28;20095;-83
2023/09/27 03:43:24;;;;;;;34.22;27.30;;;14.20;99.90;;;;;;5017518;28;20046;-83
2023/09/27 03:45:51;;;;;;;30.67;24.52;;;14.20;99.90;;;;;;5038079;28;20052;-83
2023/09/27 03:48:18;;;;;;;36.80;29.38;;;14.20;99.90;;;;;;5047250;28;20055;-83
2023/09/27 03:50:44;;;;;;;36.17;30.20;;;14.20;99.90;;;;;;5065052;28;20124;-83
2023/09/27 03:53:10;;;;;;;34.05;28.35;;;14.10;99.90;;;;;;5038093;28;20477;-82
2023/09/27 03:55:35;;;;;;;37.03;27.85;;;14.10;99.90;;;;;;5050541;28;20471;-82
2023/09/27 03:58:03;;;;;;;32.30;28.33;;;14.10;99.90;;;;;;5041608;28;20041;-83
2023/09/27 04:00:28;;;;;;;36.15;29.65;;;14.10;99.90;;;;;;5025014;28;20084;-82
2023/09/27 04:02:54;;;;;;;40.20;31.90;;;14.10;99.90;;;;;;5064277;28;20092;-84
2023/09/27 04:05:23;;;;;;;38.33;28.63;;;14.00;99.90;;;;;;5079218;28;20048;-82
2023/09/27 04:07:49;;;;;;;32.67;27.48;;;14.00;99.90;;;;;;5042584;28;20064;-83
2023/09/27 04:10:19;;;;;;;36.75;29.40;;;13.90;99.90;;;;;;5042566;28;20045;-83
2023/09/27 04:12:45;;;;;;;34.08;28.83;;;13.90;99.90;;;;;;5050289;28;20439;-83
2023/09/27 04:15:11;;;;;;;36.83;29.27;;;13.90;99.90;;;;;;5050288;28;20048;-83
2023/09/27 04:17:38;;;;;;;30.10;25.08;;;13.80;99.90;;;;;;5043001;28;20094;-83
2023/09/27 04:20:21;;;;;;;34.17;28.52;;;13.90;99.90;;;;;;5042821;28;20052;-83
2023/09/27 04:22:49;;;;;;;37.22;29.48;;;13.80;99.90;;;;;;5042870;28;20049;-82
2023/09/27 04:25:19;;;;;;;39.53;32.65;;;13.90;99.90;;;;;;5058861;28;20045;-83
2023/09/27 04:27:46;;;;;;;38.58;29.88;;;13.80;99.90;;;;;;5043285;28;20493;-84
2023/09/27 04:30:18;;;;;;;43.47;33.15;;;13.90;99.90;;;;;;5040431;28;20095;-84
2023/09/27 04:32:46;;;;;;;38.53;31.75;;;13.90;99.90;;;;;;5039908;28;20041;-83
2023/09/27 04:35:15;;;;;;;39.60;31.92;;;13.80;99.90;;;;;;5049911;28;20089;-83
2023/09/27 04:37:41;;;;;;;41.55;32.25;;;13.80;99.90;;;;;;5043232;28;20076;-83
2023/09/27 04:40:11;;;;;;;39.83;32.95;;;13.80;99.90;;;;;;5042628;28;20084;-83
2023/09/27 04:42:40;;;;;;;37.50;30.95;;;13.80;99.90;;;;;;5040849;28;20068;-83
2023/09/27 04:45:07;;;;;;;39.85;31.80;;;13.80;99.90;;;;;;5045796;28;20068;-83
2023/09/27 04:47:33;;;;;;;36.10;29.35;;;13.80;99.90;;;;;;5044227;28;20190;-83
2023/09/27 04:49:59;;;;;;;39.83;32.80;;;13.70;99.90;;;;;;5038045;28;20037;-83
2023/09/27 04:52:24;;;;;;;35.97;29.70;;;13.70;99.90;;;;;;5070431;28;20053;-83
2023/09/27 04:54:55;;;;;;;38.40;30.38;;;13.70;99.90;;;;;;5046294;28;20044;-83
2023/09/27 04:57:20;;;;;;;38.88;31.65;;;13.70;99.90;;;;;;5048642;28;20123;-82
2023/09/27 04:59:46;;;;;;;43.00;32.00;;;13.70;99.90;;;;;;5042037;28;20129;-84
2023/09/27 05:02:12;;;;;;;37.63;31.33;;;13.60;99.90;;;;;;5038967;28;20050;-83
2023/09/27 05:04:37;;;;;;;38.05;29.77;;;13.60;99.90;;;;;;5049377;28;20452;-83
2023/09/27 05:07:03;;;;;;;32.40;26.42;;;13.60;99.90;;;;;;5048999;28;20128;-84
2023/09/27 05:09:29;;;;;;;38.45;30.40;;;13.60;99.90;;;;;;5050101;28;20052;-84
2023/09/27 05:11:55;;;;;;;38.17;33.00;;;13.60;99.90;;;;;;5044032;28;20504;-83
2023/09/27 05:14:20;;;;;;;33.55;27.58;;;13.60;99.90;;;;;;5043280;28;20526;-84
2023/09/27 05:16:46;;;;;;;40.55;32.92;;;13.60;99.90;;;;;;5070093;28;20052;-83
2023/09/27 05:19:12;;;;;;;35.55;28.90;;;13.60;99.90;;;;;;5035375;28;20065;-82
2023/09/27 05:21:38;;;;;;;37.08;29.80;;;13.60;99.90;;;;;;5040882;28;20413;-83
2023/09/27 05:24:04;;;;;;;37.75;31.15;;;13.60;99.90;;;;;;5028287;28;20041;-83
2023/09/27 05:26:29;;;;;;;39.47;31.70;;;13.60;99.90;;;;;;5078444;28;20041;-80
2023/09/27 05:28:55;;;;;;;38.55;32.25;;;13.60;99.90;;;;;;5059037;28;20049;-82
2023/09/27 05:31:22;;;;;;;41.47;34.17;;;13.60;99.90;;;;;;5013701;28;20060;-82
2023/09/27 05:33:48;;;;;;;41.17;32.83;;;13.60;99.90;;;;;;5049174;28;20107;-81
2023/09/27 05:36:14;;;;;;;31.73;26.23;;;13.60;99.90;;;;;;5054460;28;20476;-83
2023/09/27 05:38:44;;;;;;;40.40;28.73;;;13.60;99.90;;;;;;5061618;28;20053;-82
2023/09/27 05:41:11;;;;;;;34.95;28.85;;;13.70;99.90;;;;;;5046731;28;20056;-81
2023/09/27 05:43:39;;;;;;;37.15;33.00;;;13.70;99.90;;;;;;5044130;28;20519;-83
2023/09/27 05:46:14;;;;;;;40.25;32.42;;;13.70;99.90;;;;;;5044195;28;20095;-83
2023/09/27 05:48:40;;;;;;;45.40;34.08;;;13.70;99.90;;;;;;5053421;28;20045;-85
2023/09/27 05:51:06;;;;;;;39.55;32.38;;;13.70;99.90;;;;;;5018930;28;20713;-83
2023/09/27 05:53:31;;;;;;;34.53;28.88;;;13.80;99.90;;;;;;5025862;28;20131;-83
2023/09/27 05:56:03;;;;;;;38.97;31.38;;;13.80;99.90;;;;;;5048959;28;20044;-82
2023/09/27 05:58:34;;;;;;;38.88;33.13;;;13.80;99.90;;;;;;5036433;28;20127;-83
2023/09/27 06:01:05;;;;;;;43.67;33.92;;;13.80;99.90;;;;;;5069834;28;20131;-84
2023/09/27 06:03:36;;;;;;;37.85;32.45;;;13.80;99.90;;;;;;5053784;28;20049;-85
2023/09/27 06:06:03;;;;;;;40.42;30.98;;;13.80;99.90;;;;;;5049451;28;20389;-83
2023/09/27 06:08:32;;;;;;;34.97;28.23;;;13.80;99.90;;;;;;5040089;28;20057;-86
2023/09/27 06:10:59;;;;;;;41.33;33.03;;;13.80;99.90;;;;;;5052217;28;20060;-86
2023/09/27 06:13:28;;;;;;;41.15;33.88;;;13.90;99.90;;;;;;5050786;28;20049;-86
2023/09/27 06:16:00;;;;;;;29.83;24.48;;;13.80;99.90;;;;;;5044968;28;20040;-82
2023/09/27 06:18:26;;;;;;;40.10;31.27;;;13.80;99.90;;;;;;5042880;28;20386;-85
2023/09/27 06:20:57;;;;;;;31.52;25.10;;;13.80;99.90;;;;;;5048853;28;20056;-84
2023/09/27 06:23:23;;;;;;;35.80;28.52;;;13.90;99.90;;;;;;5033892;28;20045;-85
2023/09/27 06:25:49;;;;;;;33.63;27.13;;;13.80;99.90;;;;;;5054112;28;20067;-86
2023/09/27 06:28:15;;;;;;;40.67;31.30;;;13.80;99.90;;;;;;5049234;28;20048;-87
2023/09/27 06:30:44;;;;;;;39.45;31.02;;;13.80;99.90;;;;;;5051651;28;20053;-82
2023/09/27 06:33:12;;;;;;;38.58;31.67;;;13.80;99.90;;;;;;5074733;28;20036;-82
2023/09/27 06:35:42;;;;;;;38.47;30.75;;;13.90;99.90;;;;;;5052033;28;20061;-82
2023/09/27 06:38:07;;;;;;;36.15;27.15;;;13.90;99.90;;;;;;5052082;28;20130;-81
2023/09/27 06:40:35;;;;;;;34.45;25.33;;;13.90;99.90;;;;;;5046912;28;20049;-82
2023/09/27 06:43:05;;;;;;;33.42;27.40;;;13.90;99.90;;;;;;5024134;28;20108;-82
2023/09/27 06:45:36;;;;;;;35.05;29.65;;;13.90;99.90;;;;;;5046460;28;20080;-83
2023/09/27 06:48:05;;;;;;;27.08;22.95;;;13.90;99.90;;;;;;5046094;28;20048;-82
2023/09/27 06:50:33;;;;;;;46.33;35.45;;;13.90;99.90;;;;;;5049897;28;20061;-82
2023/09/27 06:52:59;;;;;;;40.78;33.45;;;13.90;99.90;;;;;;5034949;28;20068;-83
2023/09/27 06:55:26;;;;;;;39.90;32.45;;;13.90;99.90;;;;;;5045312;28;20049;-82
2023/09/27 06:57:54;;;;;;;26.15;22.27;;;14.00;99.90;;;;;;5025494;28;20527;-80
2023/09/27 07:00:26;;;;;;;39.90;31.45;;;14.00;99.90;;;;;;5042912;28;20041;-81
2023/09/27 07:02:52;;;;;;;38.50;31.05;;;14.00;99.90;;;;;;5023825;28;20045;-81
2023/09/27 07:05:21;;;;;;;39.88;33.00;;;14.10;99.90;;;;;;5041591;28;20054;-81
2023/09/27 07:07:48;;;;;;;41.60;33.72;;;14.10;99.90;;;;;;5041703;28;20048;-79
2023/09/27 07:10:13;;;;;;;36.70;30.70;;;14.20;99.90;;;;;;5041955;28;20550;-77
2023/09/27 07:13:10;;;;;;;33.28;27.63;;;14.30;99.90;;;;;;5101624;27;20404;-78
2023/09/27 07:15:37;;;;;;;40.33;31.52;;;14.30;99.90;;;;;;5090064;28;20199;-78
2023/09/27 07:18:04;;;;;;;42.22;34.08;;;14.30;99.90;;;;;;5090761;28;20054;-77
2023/09/27 07:20:34;;;;;;;42.65;32.47;;;14.30;99.90;;;;;;5088320;28;20040;-80
2023/09/27 07:23:05;;;;;;;38.95;33.03;;;14.40;99.90;;;;;;5069089;28;20052;-81
2023/09/27 07:25:34;;;;;;;37.97;30.63;;;14.40;99.90;;;;;;5090972;28;20040;-80
2023/09/27 07:28:10;;;;;;;39.40;33.00;;;14.50;99.90;;;;;;5092490;28;20384;-81
2023/09/27 07:30:37;;;;;;;37.40;31.10;;;14.60;99.90;;;;;;5091496;28;20414;-77
2023/09/27 07:33:10;;;;;;;38.15;32.53;;;14.70;99.90;;;;;;5073582;28;20208;-80
2023/09/27 07:35:41;;;;;;;36.95;30.15;;;14.70;99.90;;;;;;5105503;28;20126;-77
2023/09/27 07:38:10;;;;;;;44.13;32.78;;;14.80;99.90;;;;;;5093519;28;20097;-77
2023/09/27 07:40:36;;;;;;;35.65;30.38;;;14.80;99.90;;;;;;5074583;28;20048;-78
2023/09/27 07:43:02;;;;;;;37.42;31.15;;;14.90;99.90;;;;;;5075412;28;20040;-80
2023/09/27 07:45:32;;;;;;;41.55;31.70;;;14.90;99.90;;;;;;5073321;28;20048;-79
2023/09/27 07:47:58;;;;;;;36.55;30.00;;;14.90;99.90;;;;;;5060568;28;20082;-76
2023/09/27 07:50:31;;;;;;;40.10;32.88;;;14.90;99.90;;;;;;5072760;28;20036;-82
2023/09/27 07:52:58;;;;;;;36.63;31.58;;;15.00;99.90;;;;;;5097523;28;20036;-81
2023/09/27 07:55:26;;;;;;;37.55;31.27;;;15.00;99.90;;;;;;5097346;28;20456;-80
2023/09/27 07:57:52;;;;;;;44.58;32.28;;;15.10;99.90;;;;;;5080182;28;20083;-81
2023/09/27 08:00:19;;;;;;;38.28;30.05;;;15.10;99.90;;;;;;5090458;28;20065;-79
2023/09/27 08:02:50;;;;;;;39.00;31.67;;;15.20;99.90;;;;;;5104546;28;20048;-81
2023/09/27 08:05:17;;;;;;;35.67;29.35;;;15.30;99.90;;;;;;5084839;28;20491;-80
2023/09/27 08:07:46;;;;;;;38.95;31.58;;;15.30;99.90;;;;;;5104654;28;20078;-80
2023/09/27 08:10:12;;;;;;;36.20;30.15;;;15.30;99.90;;;;;;5128905;27;20058;-80
2023/09/27 08:12:42;;;;;;;40.42;31.85;;;15.40;99.90;;;;;;5106531;28;20056;-80
2023/09/27 08:15:10;;;;;;;36.42;29.70;;;15.40;99.90;;;;;;5100774;28;20089;-82
2023/09/27 08:17:36;;;;;;;39.03;32.50;;;15.40;99.90;;;;;;5089740;28;20171;-82
2023/09/27 08:20:09;;;;;;;40.03;30.65;;;15.40;99.90;;;;;;5107879;28;20051;-82
2023/09/27 08:22:42;;;;;;;40.70;33.47;;;15.50;99.90;;;;;;5105842;28;20123;-82
2023/09/27 08:25:14;;;;;;;38.47;32.35;;;15.50;99.90;;;;;;5093909;28;20482;-82
2023/09/27 08:27:42;;;;;;;38.88;32.47;;;15.60;99.90;;;;;;5094972;28;20032;-82
2023/09/27 08:30:11;;;;;;;44.30;31.33;;;15.50;99.90;;;;;;5076347;28;20044;-82
2023/09/27 08:32:40;;;;;;;39.67;30.08;;;15.70;99.90;;;;;;5101283;28;20054;-82
2023/09/27 08:35:06;;;;;;;35.15;28.45;;;15.80;99.90;;;;;;5093034;28;20575;-82
2023/09/27 08:37:34;;;;;;;37.78;30.00;;;15.90;99.90;;;;;;5095227;28;20404;-81
2023/09/27 08:40:00;;;;;;;36.60;29.65;;;16.00;99.90;;;;;;5094269;28;20052;-81
2023/09/27 08:42:25;;;;;;;36.92;28.30;;;16.10;99.90;;;;;;5098773;28;20036;-81
2023/09/27 08:44:55;;;;;;;36.47;30.13;;;16.20;99.90;;;;;;5097504;28;20043;-81
2023/09/27 08:47:24;;;;;;;38.53;28.98;;;16.30;99.90;;;;;;5091288;28;20051;-82
2023/09/27 08:49:50;;;;;;;36.20;26.98;;;16.40;99.90;;;;;;5094437;28;20047;-81
2023/09/27 08:52:17;;;;;;;34.33;25.30;;;16.50;99.90;;;;;;5096860;28;20494;-81
2023/09/27 08:54:43;;;;;;;32.78;24.88;;;16.60;99.90;;;;;;5097009;28;20580;-81
2023/09/27 08:57:10;;;;;;;33.97;24.33;;;16.70;99.90;;;;;;5094178;28;20048;-82
2023/09/27 08:59:36;;;;;;;31.83;24.77;;;16.80;99.90;;;;;;5094483;28;20556;-81
2023/09/27 09:02:06;;;;;;;29.20;23.25;;;16.90;99.90;;;;;;5094209;28;20106;-82
2023/09/27 09:04:35;;;;;;;26.52;22.15;;;17.00;99.90;;;;;;5093168;28;20630;-81
2023/09/27 09:07:02;;;;;;;32.28;23.33;;;17.10;99.90;;;;;;5101281;28;20131;-81
2023/09/27 09:09:30;;;;;;;28.60;21.80;;;17.10;99.90;;;;;;5092754;28;20036;-82
2023/09/27 09:11:59;;;;;;;25.45;19.67;;;17.20;99.90;;;;;;5083590;28;20495;-82
2023/09/27 09:14:39;;;;;;;30.38;19.52;;;17.30;99.90;;;;;;5099091;28;20048;-81
2023/09/27 09:17:07;;;;;;;24.80;18.80;;;17.50;99.90;;;;;;5093455;28;20083;-82
2023/09/27 09:19:38;;;;;;;22.63;15.73;;;17.60;99.90;;;;;;5101367;28;20052;-83
2023/09/27 09:22:11;;;;;;;20.63;13.90;;;17.80;99.90;;;;;;5099103;28;20643;-82
2023/09/27 09:24:41;;;;;;;20.23;12.75;;;17.90;99.90;;;;;;5092920;28;20052;-82
2023/09/27 09:27:16;;;;;;;17.52;12.35;;;18.00;99.90;;;;;;5097135;28;20054;-82
2023/09/27 09:29:53;;;;;;;21.95;13.38;;;18.10;99.90;;;;;;5083399;28;20631;-82
2023/09/27 09:32:22;;;;;;;21.95;13.48;;;18.20;99.90;;;;;;5093471;28;20523;-83
2023/09/27 09:34:53;;;;;;;21.65;15.15;;;18.40;99.90;;;;;;5107664;28;20453;-82
2023/09/27 09:37:24;;;;;;;20.95;13.30;;;18.50;99.90;;;;;;5100661;28;20044;-83
2023/09/27 09:39:52;;;;;;;18.40;12.68;;;18.70;99.90;;;;;;5083432;28;20036;-82
2023/09/27 09:42:34;;;;;;;18.45;11.43;;;18.80;99.90;;;;;;5081083;28;20490;-82
2023/09/27 09:45:05;;;;;;;13.52;7.63;;;18.90;99.90;;;;;;5089461;28;20405;-82
2023/09/27 09:47:37;;;;;;;19.05;8.70;;;19.00;99.90;;;;;;5103476;28;20051;-82
2023/09/27 09:50:08;;;;;;;15.95;9.15;;;19.10;99.90;;;;;;5094775;28;20075;-82
2023/09/27 09:52:39;;;;;;;15.40;9.18;;;19.10;99.90;;;;;;5098054;28;20043;-82
2023/09/27 09:55:18;;;;;;;14.30;8.10;;;19.20;99.90;;;;;;5075484;28;20094;-82
2023/09/27 09:57:47;;;;;;;14.57;8.80;;;19.30;99.90;;;;;;5099421;28;20040;-82
2023/09/27 10:00:16;;;;;;;13.05;7.57;;;19.40;99.90;;;;;;5091511;28;20127;-83
2023/09/27 10:02:53;;;;;;;13.63;7.50;;;19.40;99.90;;;;;;5091982;28;20040;-84
2023/09/27 10:05:21;;;;;;;13.30;7.20;;;19.40;99.90;;;;;;5091065;28;20105;-83
2023/09/27 10:07:48;;;;;;;13.00;7.82;;;19.50;99.90;;;;;;5081720;28;20398;-82
2023/09/27 10:10:17;;;;;;;13.65;7.65;;;19.50;99.90;;;;;;5094148;28;20498;-83
2023/09/27 10:12:45;;;;;;;12.05;6.95;;;19.60;99.90;;;;;;5082806;28;20048;-83
2023/09/27 10:15:12;;;;;;;12.75;7.20;;;19.70;99.90;;;;;;5095031;28;20052;-81
2023/09/27 10:17:39;;;;;;;11.57;6.57;;;20.00;99.90;;;;;;5095686;28;20059;-81
2023/09/27 10:20:12;;;;;;;13.00;6.68;;;20.20;99.90;;;;;;5094471;28;20515;-82
2023/09/27 10:22:49;;;;;;;12.05;5.70;;;20.30;99.90;;;;;;5094654;28;20055;-82
2023/09/27 10:25:27;;;;;;;12.98;5.13;;;20.30;99.90;;;;;;5094837;28;20048;-82
2023/09/27 10:27:58;;;;;;;10.50;5.05;;;20.30;99.90;;;;;;5096339;28;20131;-83
2023/09/27 10:30:25;;;;;;;9.40;4.18;;;20.40;99.90;;;;;;5096896;28;20123;-83
2023/09/27 10:33:39;;;;;;;10.43;4.75;;;20.40;99.90;;;;;;5105375;28;20056;-83
2023/09/27 10:36:15;;;;;;;10.10;4.00;;;20.50;99.90;;;;;;5089850;28;20084;-82
2023/09/27 10:38:46;;;;;;;10.98;4.68;;;20.50;99.90;;;;;;5101659;28;20040;-82
2023/09/27 10:41:42;;;;;;;;;;;20.50;99.90;;;;;;5094473;28;20040;-83
2023/09/27 10:44:08;;;;;;;9.43;5.22;;;20.60;99.90;;;;;;5088031;28;20014;-82
2023/09/27 10:46:48;;;;;;;11.10;5.05;;;20.60;99.90;;;;;;5089699;28;20040;-81
2023/09/27 10:49:25;;;;;;;9.32;4.47;;;20.60;99.90;;;;;;5090048;28;20511;-81
2023/09/27 10:51:52;;;;;;;10.10;4.22;;;20.60;99.90;;;;;;5087973;28;20433;-79
2023/09/27 10:54:23;;;;;;;10.98;4.30;;;20.50;99.90;;;;;;5091427;28;20105;-79
2023/09/27 10:56:53;;;;;;;10.82;4.72;;;20.60;99.90;;;;;;5074768;28;20052;-80
2023/09/27 10:59:28;;;;;;;10.63;5.75;;;20.60;99.90;;;;;;5074561;28;20040;-80
2023/09/27 11:02:02;;;;;;;9.45;5.88;;;20.60;99.90;;;;;;5092646;28;20062;-80
2023/09/27 11:04:29;;;;;;;10.82;5.93;;;20.70;99.90;;;;;;5074467;28;20407;-81
2023/09/27 11:06:56;;;;;;;11.23;6.20;;;20.70;99.90;;;;;;5074806;28;20047;-80
2023/09/27 11:09:23;;;;;;;11.35;6.60;;;20.80;99.90;;;;;;5090895;28;20132;-80
2023/09/27 11:11:57;;;;;;;13.68;6.10;;;20.90;99.90;;;;;;5074329;28;20063;-80
2023/09/27 11:14:33;;;;;;;10.40;6.40;;;20.90;99.90;;;;;;5086237;28;20052;-80
2023/09/27 11:17:15;;;;;;;11.80;6.47;;;20.90;99.90;;;;;;5091353;28;20048;-79
2023/09/27 11:19:40;;;;;;;15.57;7.43;;;20.90;99.90;;;;;;5091587;28;20118;-80
2023/09/27 11:22:31;;;;;;;9.82;6.60;;;20.90;99.90;;;;;;5088567;28;20717;-81
2023/09/27 11:24:56;;;;;;;9.30;6.32;;;20.80;99.90;;;;;;5091111;28;20120;-80
2023/09/27 11:27:22;;;;;;;11.13;6.55;;;20.90;99.90;;;;;;5070445;28;20139;-81
2023/09/27 11:29:54;;;;;;;13.10;5.82;;;20.90;99.90;;;;;;5072318;28;20047;-82
2023/09/27 11:32:20;;;;;;;10.75;5.35;;;20.90;99.90;;;;;;5095705;28;20036;-81
2023/09/27 11:34:56;;;;;;;8.57;5.45;;;20.90;99.90;;;;;;5062378;28;20048;-81
2023/09/27 11:37:33;;;;;;;12.57;6.13;;;21.00;99.90;;;;;;5078560;28;20047;-82
2023/09/27 11:40:03;;;;;;;9.40;6.00;;;21.00;99.90;;;;;;5056648;28;20512;-82
2023/09/27 11:42:32;;;;;;;12.02;7.32;;;21.00;99.90;;;;;;5088353;28;20044;-82
2023/09/27 11:45:08;;;;;;;11.48;8.55;;;21.00;99.90;;;;;;5071404;28;20055;-82
2023/09/27 11:47:47;;;;;;;11.73;7.80;;;21.00;99.90;;;;;;5090627;28;20059;-82
2023/09/27 11:50:14;;;;;;;13.27;7.53;;;21.00;99.90;;;;;;5072446;28;20522;-82
2023/09/27 11:52:46;;;;;;;9.77;6.50;;;21.10;99.90;;;;;;5090768;28;20778;-82
2023/09/27 11:55:13;;;;;;;11.90;6.75;;;21.20;99.90;;;;;;5091523;28;20056;-83
2023/09/27 11:57:39;;;;;;;12.32;7.43;;;21.20;99.90;;;;;;5085755;28;20437;-82
2023/09/27 12:00:08;;;;;;;11.93;7.70;;;21.30;99.90;;;;;;5090014;28;20047;-80
2023/09/27 12:02:35;;;;;;;11.43;8.38;;;21.30;99.90;;;;;;5076545;28;20559;-79
2023/09/27 12:05:04;;;;;;;10.18;6.88;;;21.30;99.90;;;;;;5094077;28;20040;-81
2023/09/27 12:07:33;;;;;;;14.38;8.82;;;21.30;99.90;;;;;;5094574;28;20392;-78
2023/09/27 12:09:58;;;;;;;13.65;8.35;;;21.20;99.90;;;;;;5087321;28;20416;-80
2023/09/27 12:12:27;;;;;;;13.07;8.38;;;21.20;99.90;;;;;;5079707;28;20052;-80
2023/09/27 12:14:56;;;;;;;13.45;8.90;;;21.10;99.90;;;;;;5090855;28;20043;-79
2023/09/27 12:17:22;;;;;;;14.18;9.40;;;21.10;99.90;;;;;;5073548;28;20047;-79
2023/09/27 12:19:48;;;;;;;16.75;9.18;;;21.10;99.90;;;;;;5064021;28;20044;-80
2023/09/27 12:22:16;;;;;;;13.48;9.23;;;21.10;99.90;;;;;;5082716;28;20123;-81
2023/09/27 12:24:42;;;;;;;13.50;9.23;;;21.10;99.90;;;;;;5080097;28;20098;-81
2023/09/27 12:27:08;;;;;;;13.02;9.35;;;21.10;99.90;;;;;;5082438;28;20044;-81
2023/09/27 12:29:35;;;;;;;17.10;11.77;;;21.20;99.90;;;;;;5082537;28;20456;-79
2023/09/27 12:32:03;;;;;;;16.33;10.45;;;21.30;99.90;;;;;;5072191;28;20048;-80
2023/09/27 12:34:30;;;;;;;14.15;11.07;;;21.30;99.90;;;;;;5083492;28;20404;-83
2023/09/27 12:37:04;;;;;;;14.20;10.88;;;21.40;99.90;;;;;;5082415;28;20070;-77